createdAt,value
2019-03-30T00:01:58.868Z,1.80
2019-03-30T00:04:27.347Z,1.80
2019-03-30T00:06:55.852Z,1.90
2019-03-30T00:09:24.356Z,1.80
2019-03-30T00:11:52.939Z,1.70
2019-03-30T00:14:21.484Z,1.60
2019-03-30T00:16:49.979Z,1.60
2019-03-30T00:19:18.499Z,1.50
2019-03-30T00:21:47.183Z,1.40
2019-03-30T00:24:15.824Z,1.40
2019-03-30T00:26:44.296Z,1.40
2019-03-30T00:29:12.771Z,1.40
2019-03-30T00:31:41.371Z,1.40
2019-03-30T00:34:09.838Z,1.30
2019-03-30T00:36:38.407Z,1.30
2019-03-30T00:39:07.765Z,1.30
2019-03-30T00:41:36.324Z,1.20
2019-03-30T00:44:07.099Z,1.10
2019-03-30T00:46:35.583Z,1.10
2019-03-30T00:49:04.132Z,1.10
2019-03-30T00:51:32.601Z,1.10
2019-03-30T00:54:01.169Z,1.00
2019-03-30T00:56:29.697Z,1.00
2019-03-30T00:58:58.241Z,0.90
2019-03-30T01:01:26.735Z,1.00
2019-03-30T01:03:55.204Z,1.00
2019-03-30T01:06:23.788Z,0.90
2019-03-30T01:08:52.286Z,0.90
2019-03-30T01:11:20.867Z,1.00
2019-03-30T01:13:49.431Z,1.00
2019-03-30T01:16:17.988Z,1.00
2019-03-30T01:18:46.442Z,1.00
2019-03-30T01:21:14.923Z,0.90
2019-03-30T01:23:43.533Z,0.90
2019-03-30T01:26:12.234Z,0.90
2019-03-30T01:28:40.801Z,0.90
2019-03-30T01:31:09.287Z,0.90
2019-03-30T01:33:37.762Z,1.00
2019-03-30T01:36:06.211Z,1.10
2019-03-30T01:38:34.701Z,1.20
2019-03-30T01:41:03.180Z,1.40
2019-03-30T01:43:31.634Z,1.60
2019-03-30T01:46:00.183Z,1.80
2019-03-30T01:48:28.736Z,1.90
2019-03-30T01:50:57.312Z,2.00
2019-03-30T01:53:25.790Z,2.00
2019-03-30T01:55:54.283Z,1.90
2019-03-30T01:58:22.775Z,1.90
2019-03-30T02:00:51.405Z,2.10
2019-03-30T02:03:19.934Z,2.10
2019-03-30T02:05:48.436Z,2.00
2019-03-30T02:08:17.027Z,1.90
2019-03-30T02:10:46.435Z,1.80
2019-03-30T02:13:14.893Z,1.80
2019-03-30T02:15:43.469Z,1.70
2019-03-30T02:18:11.997Z,1.80
2019-03-30T02:20:45.478Z,1.80
2019-03-30T02:23:14.568Z,1.80
2019-03-30T02:25:43.344Z,1.80
2019-03-30T02:28:12.075Z,1.80
2019-03-30T02:30:40.701Z,1.80
2019-03-30T02:33:09.236Z,1.80
2019-03-30T02:35:37.726Z,1.70
2019-03-30T02:38:06.278Z,1.70
2019-03-30T02:40:34.742Z,1.80
2019-03-30T02:43:03.254Z,1.70
2019-03-30T02:45:31.890Z,1.70
2019-03-30T02:48:00.348Z,1.60
2019-03-30T02:50:28.846Z,1.50
2019-03-30T02:52:57.296Z,1.40
2019-03-30T02:55:25.856Z,1.30
2019-03-30T02:57:54.351Z,1.20
2019-03-30T03:00:22.957Z,1.10
2019-03-30T03:02:51.408Z,1.10
2019-03-30T03:05:19.965Z,1.00
2019-03-30T03:07:48.502Z,0.90
2019-03-30T03:10:17.333Z,0.90
2019-03-30T03:12:45.896Z,0.90
2019-03-30T03:15:14.592Z,0.80
2019-03-30T03:17:43.071Z,0.70
2019-03-30T03:20:11.595Z,0.60
2019-03-30T03:22:40.070Z,0.50
2019-03-30T03:25:08.790Z,0.50
2019-03-30T03:27:37.241Z,0.50
2019-03-30T03:30:06.824Z,0.40
2019-03-30T03:32:35.401Z,0.40
2019-03-30T03:35:04.111Z,0.40
2019-03-30T03:37:44.560Z,0.40
2019-03-30T03:40:02.953Z,0.40
2019-03-30T03:42:31.409Z,0.30
2019-03-30T03:44:59.960Z,0.20
2019-03-30T03:47:28.423Z,0.20
2019-03-30T03:49:57.026Z,0.20
2019-03-30T03:52:25.524Z,0.10
2019-03-30T03:54:55.714Z,0.10
2019-03-30T03:57:27.295Z,0.10
2019-03-30T03:59:58.008Z,0.10
2019-03-30T04:02:28.090Z,0.10
2019-03-30T04:04:59.403Z,0.10
2019-03-30T04:07:31.006Z,0.30
2019-03-30T04:10:01.116Z,0.30
2019-03-30T04:12:31.495Z,0.40
2019-03-30T04:15:02.684Z,0.60
2019-03-30T04:17:31.573Z,0.70
2019-03-30T04:20:00.060Z,0.70
2019-03-30T04:22:28.517Z,0.70
2019-03-30T04:24:56.988Z,0.80
2019-03-30T04:27:25.440Z,0.80
2019-03-30T04:29:53.925Z,0.90
2019-03-30T04:32:22.498Z,0.90
2019-03-30T04:34:51.052Z,0.90
2019-03-30T04:37:19.503Z,0.80
2019-03-30T04:39:47.983Z,0.60
2019-03-30T04:42:16.444Z,0.50
2019-03-30T04:44:45.029Z,0.50
2019-03-30T04:47:13.482Z,0.50
2019-03-30T04:49:41.928Z,0.40
2019-03-30T04:52:10.428Z,0.30
2019-03-30T04:54:38.877Z,0.20
2019-03-30T04:57:07.367Z,0.20
2019-03-30T04:59:35.852Z,0.30
2019-03-30T05:02:04.420Z,0.40
2019-03-30T05:04:32.876Z,0.50
2019-03-30T05:07:01.329Z,0.50
2019-03-30T05:09:29.794Z,0.50
2019-03-30T05:12:00.195Z,0.60
2019-03-30T05:14:28.723Z,0.50
2019-03-30T05:16:57.278Z,0.40
2019-03-30T05:19:25.849Z,0.20
2019-03-30T05:21:55.114Z,0.10
2019-03-30T05:24:23.564Z,0.10
2019-03-30T05:26:52.321Z,0.10
2019-03-30T05:29:21.002Z,0.10
2019-03-30T05:31:49.624Z,0.10
2019-03-30T05:34:18.092Z,0.10
2019-03-30T05:36:46.659Z,0.30
2019-03-30T05:39:15.118Z,0.40
2019-03-30T05:41:43.592Z,0.50
2019-03-30T05:44:12.081Z,0.60
2019-03-30T05:46:40.903Z,0.70
2019-03-30T05:49:09.433Z,0.80
2019-03-30T05:51:37.992Z,0.80
2019-03-30T05:54:06.456Z,0.70
2019-03-30T05:56:35.026Z,0.70
2019-03-30T05:59:03.553Z,0.90
2019-03-30T06:01:32.039Z,1.20
2019-03-30T06:04:00.495Z,1.40
2019-03-30T06:06:29.010Z,1.50
2019-03-30T06:08:57.498Z,1.60
2019-03-30T06:11:25.984Z,1.70
2019-03-30T06:13:54.554Z,1.70
2019-03-30T06:16:23.060Z,1.80
2019-03-30T06:18:51.612Z,1.90
2019-03-30T06:21:20.062Z,2.00
2019-03-30T06:23:48.849Z,2.10
2019-03-30T06:26:17.612Z,2.20
2019-03-30T06:28:46.064Z,2.30
2019-03-30T06:31:14.528Z,2.40
2019-03-30T06:33:43.006Z,2.60
2019-03-30T06:36:11.520Z,2.70
2019-03-30T06:38:39.987Z,2.80
2019-03-30T06:41:08.471Z,3.00
2019-03-30T06:43:37.011Z,3.20
2019-03-30T06:46:05.575Z,3.30
2019-03-30T06:48:36.133Z,3.40
2019-03-30T06:51:04.260Z,3.50
2019-03-30T06:53:32.748Z,3.70
2019-03-30T06:56:01.327Z,3.80
2019-03-30T06:58:30.804Z,3.90
2019-03-30T07:00:59.466Z,4.00
2019-03-30T07:03:28.077Z,4.20
2019-03-30T07:05:58.027Z,4.40
2019-03-30T07:08:28.409Z,4.60
2019-03-30T07:10:58.547Z,4.80
2019-03-30T07:13:28.406Z,4.90
2019-03-30T07:15:59.363Z,5.20
2019-03-30T07:18:27.935Z,5.40
2019-03-30T07:20:56.515Z,5.60
2019-03-30T07:23:26.611Z,5.90
2019-03-30T07:25:55.071Z,6.00
2019-03-30T07:28:23.521Z,6.30
2019-03-30T07:30:52.047Z,6.60
2019-03-30T07:33:20.580Z,6.80
2019-03-30T07:35:49.112Z,7.00
2019-03-30T07:38:17.670Z,7.30
2019-03-30T07:40:46.203Z,7.50
2019-03-30T07:43:14.761Z,7.70
2019-03-30T07:45:43.214Z,8.00
2019-03-30T07:48:11.693Z,8.30
2019-03-30T07:50:40.180Z,8.60
2019-03-30T07:53:08.728Z,8.90
2019-03-30T07:55:37.274Z,9.40
2019-03-30T07:58:05.755Z,10.10
2019-03-30T08:00:34.337Z,10.80
2019-03-30T08:03:02.856Z,11.50
2019-03-30T08:05:31.516Z,12.30
2019-03-30T08:07:59.980Z,13.20
2019-03-30T08:10:28.578Z,14.20
2019-03-30T08:12:57.403Z,15.20
2019-03-30T08:15:25.864Z,15.80
2019-03-30T08:17:54.404Z,16.20
2019-03-30T08:20:22.891Z,16.30
2019-03-30T08:22:51.358Z,17.20
2019-03-30T08:25:19.888Z,17.20
2019-03-30T08:27:48.348Z,17.00
2019-03-30T08:30:16.966Z,17.20
2019-03-30T08:32:45.464Z,17.90
2019-03-30T08:35:13.973Z,18.60
2019-03-30T08:37:42.500Z,18.50
2019-03-30T08:40:11.218Z,18.80
2019-03-30T08:42:39.684Z,18.70
2019-03-30T08:45:08.474Z,18.30
2019-03-30T08:47:36.952Z,18.00
2019-03-30T08:50:07.742Z,17.80
2019-03-30T08:52:36.263Z,17.60
2019-03-30T08:55:06.667Z,17.20
2019-03-30T08:57:35.118Z,17.00
2019-03-30T09:00:04.353Z,16.70
2019-03-30T09:02:32.834Z,17.40
2019-03-30T09:05:01.311Z,17.50
2019-03-30T09:07:29.792Z,17.40
2019-03-30T09:09:58.247Z,17.70
2019-03-30T09:12:26.730Z,18.70
2019-03-30T09:14:55.255Z,18.30
2019-03-30T09:17:23.748Z,17.70
2019-03-30T09:19:52.222Z,18.10
2019-03-30T09:22:20.776Z,19.00
2019-03-30T09:24:49.272Z,19.60
2019-03-30T09:27:17.764Z,19.90
2019-03-30T09:29:46.225Z,19.80
2019-03-30T09:32:15.181Z,20.20
2019-03-30T09:34:43.760Z,20.10
2019-03-30T09:37:12.267Z,20.60
2019-03-30T09:39:40.755Z,21.20
2019-03-30T09:42:09.216Z,21.90
2019-03-30T09:44:37.717Z,22.40
2019-03-30T09:47:06.227Z,22.50
2019-03-30T09:49:34.720Z,22.20
2019-03-30T09:52:03.191Z,22.10
2019-03-30T09:54:31.658Z,22.10
2019-03-30T09:57:00.162Z,22.30
2019-03-30T09:59:28.608Z,22.20
2019-03-30T10:01:57.104Z,22.10
2019-03-30T10:04:25.587Z,21.70
2019-03-30T10:06:54.049Z,21.40
2019-03-30T10:09:22.531Z,20.90
2019-03-30T10:11:51.038Z,21.40
2019-03-30T10:14:19.750Z,22.20
2019-03-30T10:16:48.812Z,22.60
2019-03-30T10:19:17.390Z,22.40
2019-03-30T10:21:45.867Z,22.50
2019-03-30T10:24:14.336Z,22.10
2019-03-30T10:26:42.829Z,22.50
2019-03-30T10:29:11.277Z,22.40
2019-03-30T10:31:39.782Z,21.40
2019-03-30T10:34:08.232Z,20.90
2019-03-30T10:36:36.791Z,20.60
2019-03-30T10:39:07.300Z,20.60
2019-03-30T10:41:35.774Z,20.60
2019-03-30T10:44:04.301Z,20.40
2019-03-30T10:46:32.794Z,20.50
2019-03-30T10:49:01.321Z,20.60
2019-03-30T10:51:29.809Z,20.80
2019-03-30T10:53:58.277Z,21.40
2019-03-30T10:56:26.804Z,22.10
2019-03-30T10:58:55.395Z,21.90
2019-03-30T11:01:23.876Z,22.40
2019-03-30T11:03:52.363Z,22.60
2019-03-30T11:06:20.858Z,22.70
2019-03-30T11:08:49.320Z,23.00
2019-03-30T11:11:17.880Z,22.60
2019-03-30T11:13:46.338Z,22.40
2019-03-30T11:16:14.796Z,22.80
2019-03-30T11:18:43.282Z,23.20
2019-03-30T11:21:11.762Z,23.10
2019-03-30T11:23:40.245Z,23.20
2019-03-30T11:26:08.789Z,23.40
2019-03-30T11:28:37.237Z,22.90
2019-03-30T11:31:05.758Z,23.00
2019-03-30T11:33:36.665Z,23.20
2019-03-30T11:36:05.208Z,23.10
2019-03-30T11:38:33.660Z,24.10
2019-03-30T11:41:02.150Z,24.40
2019-03-30T11:43:30.598Z,24.70
2019-03-30T11:45:59.071Z,25.40
2019-03-30T11:48:27.523Z,25.90
2019-03-30T11:50:56.036Z,26.10
2019-03-30T11:53:24.519Z,25.50
2019-03-30T11:55:52.981Z,25.80
2019-03-30T11:58:21.550Z,26.00
2019-03-30T12:00:49.995Z,25.50
2019-03-30T12:03:18.560Z,25.40
2019-03-30T12:05:47.022Z,24.80
2019-03-30T12:08:15.500Z,24.20
2019-03-30T12:10:43.967Z,24.60
2019-03-30T12:13:12.528Z,24.40
2019-03-30T12:15:41.052Z,24.50
2019-03-30T12:18:09.571Z,24.90
2019-03-30T12:20:38.108Z,26.30
2019-03-30T12:23:06.558Z,26.90
2019-03-30T12:25:36.271Z,25.90
2019-03-30T12:28:05.016Z,26.40
2019-03-30T12:30:33.636Z,26.30
2019-03-30T12:33:02.100Z,25.50
2019-03-30T12:35:30.666Z,25.70
2019-03-30T12:37:59.114Z,26.60
2019-03-30T12:40:27.587Z,26.50
2019-03-30T12:42:56.143Z,26.10
2019-03-30T12:45:24.603Z,25.70
2019-03-30T12:47:53.952Z,26.50
2019-03-30T12:50:22.438Z,27.10
2019-03-30T12:52:50.896Z,27.50
2019-03-30T12:55:19.449Z,27.50
2019-03-30T12:57:47.944Z,27.80
2019-03-30T13:00:16.472Z,27.90
2019-03-30T13:02:44.947Z,27.80
2019-03-30T13:05:13.541Z,27.20
2019-03-30T13:07:42.012Z,26.60
2019-03-30T13:10:11.144Z,26.50
2019-03-30T13:12:39.599Z,26.60
2019-03-30T13:15:08.302Z,25.90
2019-03-30T13:17:36.862Z,25.60
2019-03-30T13:20:06.764Z,26.20
2019-03-30T13:22:35.324Z,26.30
2019-03-30T13:25:04.731Z,27.30
2019-03-30T13:27:33.192Z,27.80
2019-03-30T13:30:01.667Z,28.20
2019-03-30T13:32:30.129Z,28.90
2019-03-30T13:34:58.614Z,29.30
2019-03-30T13:37:27.124Z,29.40
2019-03-30T13:39:55.608Z,29.40
2019-03-30T13:42:24.119Z,28.80
2019-03-30T13:44:52.743Z,28.30
2019-03-30T13:47:21.211Z,28.00
2019-03-30T13:49:49.710Z,28.60
2019-03-30T13:52:18.181Z,27.30
2019-03-30T13:54:46.675Z,27.00
2019-03-30T13:57:15.182Z,27.30
2019-03-30T13:59:43.779Z,27.70
2019-03-30T14:02:12.262Z,26.50
2019-03-30T14:04:40.832Z,26.20
2019-03-30T14:07:09.364Z,25.90
2019-03-30T14:09:37.836Z,26.10
2019-03-30T14:12:06.290Z,26.50
2019-03-30T14:14:34.852Z,27.70
2019-03-30T14:17:03.338Z,28.60
2019-03-30T14:19:31.783Z,29.60
2019-03-30T14:22:00.252Z,29.50
2019-03-30T14:24:28.735Z,28.70
2019-03-30T14:26:57.233Z,28.40
2019-03-30T14:29:25.736Z,27.70
2019-03-30T14:31:54.180Z,26.30
2019-03-30T14:34:22.671Z,26.30
2019-03-30T14:36:51.124Z,26.50
2019-03-30T14:39:19.624Z,27.00
2019-03-30T14:41:48.083Z,27.60
2019-03-30T14:44:16.593Z,28.30
2019-03-30T14:46:45.090Z,29.10
2019-03-30T14:49:13.662Z,28.60
2019-03-30T14:51:42.144Z,27.70
2019-03-30T14:54:10.591Z,27.80
2019-03-30T14:56:45.392Z,27.50
2019-03-30T14:59:10.604Z,26.60
2019-03-30T15:01:39.329Z,26.40
2019-03-30T15:04:08.003Z,26.50
2019-03-30T15:06:36.524Z,27.20
2019-03-30T15:09:06.861Z,27.50
2019-03-30T15:11:37.897Z,26.90
2019-03-30T15:14:05.828Z,26.00
2019-03-30T15:16:34.407Z,26.00
2019-03-30T15:19:02.916Z,26.00
2019-03-30T15:21:31.436Z,26.00
2019-03-30T15:23:59.937Z,25.90
2019-03-30T15:26:28.396Z,26.00
2019-03-30T15:28:56.862Z,25.50
2019-03-30T15:31:25.423Z,25.80
2019-03-30T15:33:53.884Z,25.70
2019-03-30T15:36:22.400Z,25.70
2019-03-30T15:38:50.886Z,24.70
2019-03-30T15:41:19.359Z,24.00
2019-03-30T15:43:47.824Z,23.80
2019-03-30T15:46:16.316Z,23.30
2019-03-30T15:48:44.768Z,22.30
2019-03-30T15:51:13.396Z,22.00
2019-03-30T15:53:41.845Z,22.30
2019-03-30T15:56:10.403Z,22.30
2019-03-30T15:58:38.883Z,21.90
2019-03-30T16:01:07.411Z,21.40
2019-03-30T16:03:35.917Z,20.80
2019-03-30T16:06:05.566Z,20.40
2019-03-30T16:08:34.126Z,19.60
2019-03-30T16:11:02.574Z,19.30
2019-03-30T16:13:31.096Z,18.80
2019-03-30T16:15:59.568Z,18.50
2019-03-30T16:18:28.003Z,18.10
2019-03-30T16:20:56.491Z,17.60
2019-03-30T16:23:25.057Z,17.30
2019-03-30T16:25:53.544Z,17.10
2019-03-30T16:28:22.072Z,16.80
2019-03-30T16:30:50.544Z,16.60
2019-03-30T16:33:19.168Z,16.50
2019-03-30T16:35:47.612Z,16.30
2019-03-30T16:38:16.067Z,16.20
2019-03-30T16:40:44.575Z,16.10
2019-03-30T16:43:13.030Z,15.90
2019-03-30T16:45:41.606Z,15.80
2019-03-30T16:48:10.066Z,15.60
2019-03-30T16:50:38.539Z,15.50
2019-03-30T16:53:07.023Z,15.50
2019-03-30T16:55:35.498Z,15.40
2019-03-30T16:58:04.071Z,15.30
2019-03-30T17:00:34.078Z,15.10
2019-03-30T17:03:03.512Z,14.90
2019-03-30T17:05:32.126Z,14.90
2019-03-30T17:08:00.613Z,14.80
2019-03-30T17:10:29.106Z,14.60
2019-03-30T17:12:57.589Z,14.50
2019-03-30T17:15:26.070Z,14.30
2019-03-30T17:17:54.524Z,14.20
2019-03-30T17:20:23.039Z,14.00
2019-03-30T17:22:51.581Z,13.80
2019-03-30T17:25:20.036Z,13.60
2019-03-30T17:27:58.327Z,13.40
2019-03-30T17:30:18.698Z,13.10
2019-03-30T17:32:47.191Z,12.90
2019-03-30T17:35:15.657Z,12.80
2019-03-30T17:37:44.123Z,12.60
2019-03-30T17:40:12.684Z,12.30
2019-03-30T17:42:41.140Z,12.10
2019-03-30T17:45:10.968Z,12.00
2019-03-30T17:47:39.494Z,11.80
2019-03-30T17:50:09.010Z,11.60
2019-03-30T17:52:37.471Z,11.50
2019-03-30T17:55:06.548Z,11.40
2019-03-30T17:57:35.052Z,11.20
2019-03-30T18:00:07.961Z,11.10
2019-03-30T18:02:35.584Z,10.90
2019-03-30T18:05:04.708Z,10.80
2019-03-30T18:07:33.155Z,10.70
2019-03-30T18:10:03.442Z,10.60
2019-03-30T18:12:31.862Z,10.40
2019-03-30T18:15:00.422Z,10.30
2019-03-30T18:17:28.921Z,10.30
2019-03-30T18:19:57.430Z,10.00
2019-03-30T18:22:26.007Z,9.70
2019-03-30T18:24:54.535Z,9.40
2019-03-30T18:27:22.975Z,9.10
2019-03-30T18:29:51.452Z,9.00
2019-03-30T18:32:20.559Z,8.80
2019-03-30T18:34:50.294Z,8.80
2019-03-30T18:37:18.960Z,8.60
2019-03-30T18:39:47.486Z,8.30
2019-03-30T18:42:15.970Z,8.10
2019-03-30T18:44:44.457Z,8.00
2019-03-30T18:47:12.900Z,7.90
2019-03-30T18:49:42.670Z,7.90
2019-03-30T18:52:11.367Z,7.80
2019-03-30T18:54:41.917Z,7.60
2019-03-30T18:57:10.360Z,7.40
2019-03-30T18:59:38.855Z,7.30
2019-03-30T19:02:07.311Z,7.30
2019-03-30T19:04:35.786Z,7.40
2019-03-30T19:07:04.300Z,7.50
2019-03-30T19:09:32.769Z,7.30
2019-03-30T19:12:01.263Z,7.20
2019-03-30T19:14:29.748Z,7.00
2019-03-30T19:16:58.217Z,6.90
2019-03-30T19:19:26.845Z,6.80
2019-03-30T19:21:55.326Z,6.80
2019-03-30T19:24:23.984Z,6.70
2019-03-30T19:26:52.456Z,6.70
2019-03-30T19:29:20.995Z,6.50
2019-03-30T19:31:49.495Z,6.40
2019-03-30T19:34:17.996Z,6.40
2019-03-30T19:36:46.453Z,6.40
2019-03-30T19:39:15.139Z,6.30
2019-03-30T19:41:43.608Z,6.40
2019-03-30T19:44:12.243Z,6.30
2019-03-30T19:46:40.758Z,6.30
2019-03-30T19:49:09.212Z,6.10
2019-03-30T19:51:37.679Z,6.00
2019-03-30T19:54:06.230Z,5.90
2019-03-30T19:56:34.689Z,5.80
2019-03-30T19:59:10.526Z,5.70
2019-03-30T20:01:33.340Z,5.60
2019-03-30T20:04:01.842Z,5.60
2019-03-30T20:06:30.307Z,5.60
2019-03-30T20:08:58.835Z,5.60
2019-03-30T20:11:27.348Z,5.50
2019-03-30T20:13:55.846Z,5.40
2019-03-30T20:16:24.383Z,5.50
2019-03-30T20:19:10.652Z,5.60
2019-03-30T20:21:23.187Z,5.70
2019-03-30T20:23:51.680Z,5.70
2019-03-30T20:26:20.172Z,5.70
2019-03-30T20:28:48.688Z,5.50
2019-03-30T20:31:17.210Z,5.30
2019-03-30T20:33:45.715Z,5.20
2019-03-30T20:36:14.219Z,5.10
2019-03-30T20:38:42.686Z,5.00
2019-03-30T20:41:11.289Z,5.00
2019-03-30T20:43:39.790Z,4.90
2019-03-30T20:46:08.243Z,4.70
2019-03-30T20:48:36.788Z,4.70
2019-03-30T20:51:05.281Z,4.70
2019-03-30T20:53:35.369Z,4.80
2019-03-30T20:56:03.946Z,4.90
2019-03-30T20:58:32.408Z,4.80
2019-03-30T21:01:00.975Z,4.80
2019-03-30T21:03:29.475Z,4.80
2019-03-30T21:05:57.958Z,4.80
2019-03-30T21:08:26.555Z,4.90
2019-03-30T21:10:55.074Z,4.80
2019-03-30T21:13:23.557Z,4.70
2019-03-30T21:15:52.067Z,4.50
2019-03-30T21:18:20.553Z,4.40
2019-03-30T21:20:49.147Z,4.30
2019-03-30T21:23:17.623Z,4.30
2019-03-30T21:25:46.114Z,4.30
2019-03-30T21:28:14.570Z,4.20
2019-03-30T21:30:43.066Z,4.20
2019-03-30T21:33:11.551Z,4.30
2019-03-30T21:35:40.020Z,4.20
2019-03-30T21:38:08.513Z,4.10
2019-03-30T21:40:37.008Z,4.00
2019-03-30T21:43:05.540Z,4.00
2019-03-30T21:45:34.052Z,3.90
2019-03-30T21:48:02.551Z,3.90
2019-03-30T21:50:31.071Z,3.80
2019-03-30T21:52:59.556Z,3.70
2019-03-30T21:55:28.016Z,3.60
2019-03-30T21:57:56.582Z,3.60
2019-03-30T22:00:33.073Z,3.50
2019-03-30T22:03:01.572Z,3.60
2019-03-30T22:05:30.202Z,3.70
2019-03-30T22:07:59.029Z,3.60
2019-03-30T22:10:28.373Z,3.50
2019-03-30T22:12:57.092Z,3.50
2019-03-30T22:15:29.648Z,3.40
2019-03-30T22:17:58.279Z,3.50
2019-03-30T22:20:26.806Z,3.50
2019-03-30T22:22:55.305Z,3.50
2019-03-30T22:25:23.751Z,3.40
2019-03-30T22:27:52.193Z,3.30
2019-03-30T22:30:25.111Z,3.40
2019-03-30T22:32:50.917Z,3.40
2019-03-30T22:35:19.399Z,3.40
2019-03-30T22:37:47.906Z,3.30
2019-03-30T22:40:16.489Z,3.30
2019-03-30T22:42:44.982Z,3.20
2019-03-30T22:45:13.539Z,3.30
2019-03-30T22:47:42.031Z,3.30
2019-03-30T22:50:10.658Z,3.30
2019-03-30T22:52:39.133Z,3.30
2019-03-30T22:55:08.550Z,3.30
2019-03-30T22:57:36.995Z,3.30
2019-03-30T23:00:09.609Z,3.20
2019-03-30T23:02:38.088Z,3.10
2019-03-30T23:05:06.872Z,3.00
2019-03-30T23:07:35.834Z,3.00
2019-03-30T23:10:06.419Z,3.10
2019-03-30T23:12:34.942Z,3.10
2019-03-30T23:15:03.518Z,3.10
2019-03-30T23:17:32.058Z,3.00
2019-03-30T23:20:00.500Z,3.00
2019-03-30T23:22:28.986Z,2.90
2019-03-30T23:24:57.438Z,2.90
2019-03-30T23:27:25.927Z,2.80
2019-03-30T23:29:54.452Z,2.80
2019-03-30T23:32:22.918Z,2.80
2019-03-30T23:34:51.368Z,2.80
2019-03-30T23:37:19.838Z,2.80
2019-03-30T23:39:48.327Z,2.80
2019-03-30T23:42:16.828Z,2.70
2019-03-30T23:44:45.320Z,2.70
2019-03-30T23:47:13.778Z,2.70
2019-03-30T23:49:42.266Z,2.60
2019-03-30T23:52:10.720Z,2.60
2019-03-30T23:54:39.202Z,2.50
2019-03-30T23:57:07.731Z,2.40
2019-03-30T23:59:36.246Z,2.30
